createdAt,value
2017-05-18T00:01:37.061Z,13.30
2017-05-18T00:04:04.281Z,13.20
2017-05-18T00:06:32.175Z,13.10
2017-05-18T00:08:59.325Z,13.10
2017-05-18T00:11:26.506Z,13.00
2017-05-18T00:13:53.701Z,12.90
2017-05-18T00:16:20.858Z,12.90
2017-05-18T00:18:48.737Z,12.90
2017-05-18T00:21:15.920Z,12.90
2017-05-18T00:23:43.119Z,12.90
2017-05-18T00:26:11.022Z,12.80
2017-05-18T00:28:38.257Z,12.80
2017-05-18T00:31:05.401Z,12.80
2017-05-18T00:33:32.555Z,12.90
2017-05-18T00:36:00.215Z,12.90
2017-05-18T00:38:27.366Z,12.90
2017-05-18T00:40:54.520Z,12.90
2017-05-18T00:43:21.697Z,12.90
2017-05-18T00:45:48.849Z,12.90
2017-05-18T00:48:16.037Z,12.80
2017-05-18T00:50:43.197Z,12.70
2017-05-18T00:53:11.116Z,12.70
2017-05-18T00:55:38.318Z,12.70
2017-05-18T00:58:06.232Z,12.70
2017-05-18T01:00:33.418Z,12.70
2017-05-18T01:03:00.603Z,12.70
2017-05-18T01:05:28.509Z,12.80
2017-05-18T01:07:55.699Z,12.80
2017-05-18T01:10:22.884Z,12.80
2017-05-18T01:12:50.050Z,12.70
2017-05-18T01:15:17.225Z,12.70
2017-05-18T01:17:44.389Z,12.70
2017-05-18T01:20:11.629Z,12.60
2017-05-18T01:22:38.786Z,12.60
2017-05-18T01:25:05.977Z,12.60
2017-05-18T01:27:33.168Z,12.60
2017-05-18T01:30:00.314Z,12.60
2017-05-18T01:32:27.486Z,12.50
2017-05-18T01:34:54.926Z,12.40
2017-05-18T01:37:22.210Z,12.40
2017-05-18T01:39:49.432Z,12.40
2017-05-18T01:42:16.617Z,12.50
2017-05-18T01:44:44.598Z,12.50
2017-05-18T01:47:12.536Z,12.40
2017-05-18T01:49:39.714Z,12.40
2017-05-18T01:52:07.648Z,12.30
2017-05-18T01:54:34.846Z,12.40
2017-05-18T01:57:02.768Z,12.40
2017-05-18T01:59:29.980Z,12.40
2017-05-18T02:01:57.269Z,12.40
2017-05-18T02:04:24.458Z,12.30
2017-05-18T02:06:52.341Z,12.20
2017-05-18T02:09:19.529Z,12.30
2017-05-18T02:11:46.722Z,12.30
2017-05-18T02:14:14.614Z,12.20
2017-05-18T02:16:41.817Z,12.20
2017-05-18T02:19:08.985Z,12.20
2017-05-18T02:21:36.889Z,12.20
2017-05-18T02:24:04.065Z,12.20
2017-05-18T02:26:31.225Z,12.20
2017-05-18T02:28:58.390Z,12.10
2017-05-18T02:31:25.585Z,12.10
2017-05-18T02:33:52.799Z,12.00
2017-05-18T02:36:19.933Z,11.90
2017-05-18T02:38:47.138Z,11.90
2017-05-18T02:41:14.301Z,11.80
2017-05-18T02:43:41.497Z,11.80
2017-05-18T02:46:08.648Z,11.90
2017-05-18T02:48:35.862Z,11.90
2017-05-18T02:51:03.033Z,11.90
2017-05-18T02:53:30.189Z,11.80
2017-05-18T02:55:57.384Z,11.90
2017-05-18T02:58:24.547Z,11.90
2017-05-18T03:00:51.742Z,11.80
2017-05-18T03:03:18.901Z,11.80
2017-05-18T03:05:46.137Z,11.80
2017-05-18T03:08:13.333Z,11.80
2017-05-18T03:10:41.221Z,11.70
2017-05-18T03:13:08.418Z,11.70
2017-05-18T03:15:35.583Z,11.70
2017-05-18T03:18:02.756Z,11.60
2017-05-18T03:20:29.946Z,11.80
2017-05-18T03:22:57.092Z,11.80
2017-05-18T03:25:24.298Z,11.80
2017-05-18T03:27:51.481Z,11.80
2017-05-18T03:30:18.664Z,11.80
2017-05-18T03:32:45.841Z,11.80
2017-05-18T03:35:13.737Z,11.80
2017-05-18T03:37:40.901Z,11.70
2017-05-18T03:40:08.073Z,11.80
2017-05-18T03:42:35.229Z,11.70
2017-05-18T03:45:02.425Z,11.70
2017-05-18T03:47:29.578Z,11.60
2017-05-18T03:49:56.769Z,11.70
2017-05-18T03:52:23.932Z,11.70
2017-05-18T03:54:51.112Z,11.60
2017-05-18T03:57:18.984Z,11.70
2017-05-18T03:59:46.903Z,11.80
2017-05-18T04:02:14.097Z,11.80
2017-05-18T04:04:41.253Z,11.70
2017-05-18T04:07:09.166Z,11.80
2017-05-18T04:09:36.361Z,11.80
2017-05-18T04:12:03.520Z,11.90
2017-05-18T04:14:30.676Z,12.00
2017-05-18T04:16:57.862Z,12.00
2017-05-18T04:19:25.016Z,12.00
2017-05-18T04:21:52.172Z,12.00
2017-05-18T04:24:19.380Z,12.00
2017-05-18T04:26:46.589Z,12.10
2017-05-18T04:29:13.792Z,12.10
2017-05-18T04:31:40.945Z,12.10
2017-05-18T04:34:08.113Z,12.10
2017-05-18T04:36:35.301Z,12.20
2017-05-18T04:39:02.525Z,12.30
2017-05-18T04:41:29.726Z,12.40
2017-05-18T04:43:56.880Z,12.50
2017-05-18T04:46:50.395Z,12.60
2017-05-18T04:49:18.290Z,12.60
2017-05-18T04:51:45.357Z,12.50
2017-05-18T04:54:12.469Z,12.60
2017-05-18T04:56:39.619Z,12.80
2017-05-18T04:59:17.118Z,12.90
2017-05-18T05:01:44.253Z,12.90
2017-05-18T05:04:11.396Z,12.90
2017-05-18T05:06:38.577Z,13.00
2017-05-18T05:09:05.748Z,13.00
2017-05-18T05:11:33.686Z,13.20
2017-05-18T05:14:00.896Z,13.40
2017-05-18T05:16:28.108Z,13.60
2017-05-18T05:18:55.263Z,13.60
2017-05-18T05:21:22.398Z,13.60
2017-05-18T05:23:49.586Z,13.70
2017-05-18T05:26:16.755Z,13.70
2017-05-18T05:28:43.914Z,13.70
2017-05-18T05:31:11.096Z,13.90
2017-05-18T05:33:38.326Z,13.90
2017-05-18T05:36:05.465Z,14.00
2017-05-18T05:38:32.650Z,14.00
2017-05-18T05:40:59.860Z,14.10
2017-05-18T05:43:27.033Z,14.20
2017-05-18T05:45:54.235Z,14.30
2017-05-18T05:48:22.141Z,14.30
2017-05-18T05:50:49.297Z,14.40
2017-05-18T05:53:16.475Z,14.50
2017-05-18T05:55:43.627Z,14.50
2017-05-18T05:58:10.818Z,14.60
2017-05-18T06:00:37.951Z,14.60
2017-05-18T06:03:05.888Z,14.60
2017-05-18T06:05:33.040Z,14.70
2017-05-18T06:08:00.214Z,14.80
2017-05-18T06:10:28.117Z,14.80
2017-05-18T06:12:55.254Z,14.90
2017-05-18T06:15:22.428Z,14.90
2017-05-18T06:17:49.601Z,15.00
2017-05-18T06:20:16.765Z,15.10
2017-05-18T06:22:43.924Z,15.20
2017-05-18T06:25:11.136Z,15.30
2017-05-18T06:27:38.342Z,15.30
2017-05-18T06:30:06.249Z,15.40
2017-05-18T06:32:33.445Z,15.50
2017-05-18T06:35:00.572Z,15.50
2017-05-18T06:37:27.750Z,15.60
2017-05-18T06:39:55.621Z,15.60
2017-05-18T06:42:23.510Z,15.70
2017-05-18T06:44:50.712Z,15.80
2017-05-18T06:47:17.852Z,15.90
2017-05-18T06:49:44.997Z,16.00
2017-05-18T06:52:12.159Z,16.20
2017-05-18T06:54:39.317Z,16.30
2017-05-18T06:57:06.492Z,16.40
2017-05-18T06:59:34.377Z,16.40
2017-05-18T07:02:01.521Z,16.40
2017-05-18T07:04:28.703Z,16.50
2017-05-18T07:06:55.857Z,16.50
2017-05-18T07:09:23.026Z,16.60
2017-05-18T07:11:50.213Z,16.70
2017-05-18T07:14:18.129Z,16.70
2017-05-18T07:16:52.436Z,16.90
2017-05-18T07:19:19.609Z,17.10
2017-05-18T07:21:46.745Z,17.10
2017-05-18T07:24:13.904Z,17.20
2017-05-18T07:26:41.086Z,17.30
2017-05-18T07:29:08.229Z,17.30
2017-05-18T07:31:35.376Z,17.40
2017-05-18T07:34:02.540Z,17.50
2017-05-18T07:36:30.424Z,17.60
2017-05-18T07:38:57.612Z,17.70
2017-05-18T07:41:24.762Z,17.80
2017-05-18T07:43:51.906Z,17.80
2017-05-18T07:46:19.089Z,18.00
2017-05-18T07:48:46.255Z,18.00
2017-05-18T07:51:13.410Z,18.10
2017-05-18T07:53:41.322Z,18.10
2017-05-18T07:56:08.526Z,18.20
2017-05-18T07:58:36.449Z,18.30
2017-05-18T08:01:03.638Z,18.50
2017-05-18T08:03:30.815Z,18.60
2017-05-18T08:05:57.968Z,18.70
2017-05-18T08:08:25.244Z,18.80
2017-05-18T08:10:52.381Z,18.80
2017-05-18T08:13:19.525Z,18.90
2017-05-18T08:15:46.740Z,19.10
2017-05-18T08:18:13.884Z,19.10
2017-05-18T08:20:41.024Z,19.20
2017-05-18T08:23:08.196Z,19.30
2017-05-18T08:25:35.344Z,19.40
2017-05-18T08:28:03.321Z,19.60
2017-05-18T08:30:31.228Z,19.60
2017-05-18T08:32:58.369Z,19.70
2017-05-18T08:35:25.552Z,19.80
2017-05-18T08:37:52.719Z,20.00
2017-05-18T08:40:19.882Z,20.00
2017-05-18T08:42:47.804Z,20.00
2017-05-18T08:45:14.956Z,20.10
2017-05-18T08:47:42.151Z,20.20
2017-05-18T08:50:10.023Z,20.20
2017-05-18T08:52:37.901Z,20.40
2017-05-18T08:55:05.805Z,20.50
2017-05-18T08:57:32.984Z,20.60
2017-05-18T09:00:00.137Z,20.80
2017-05-18T09:02:27.312Z,21.00
2017-05-18T09:04:55.193Z,20.90
2017-05-18T09:07:23.089Z,20.90
2017-05-18T09:09:50.265Z,21.10
2017-05-18T09:12:17.453Z,21.30
2017-05-18T09:14:45.335Z,21.20
2017-05-18T09:17:12.489Z,21.30
2017-05-18T09:19:39.665Z,21.40
2017-05-18T09:22:06.881Z,21.50
2017-05-18T09:24:34.169Z,21.50
2017-05-18T09:27:01.312Z,21.60
2017-05-18T09:29:28.491Z,21.60
2017-05-18T09:31:55.666Z,21.80
2017-05-18T09:34:23.558Z,21.90
2017-05-18T09:36:50.700Z,22.10
2017-05-18T09:39:17.965Z,22.20
2017-05-18T09:41:45.132Z,22.20
2017-05-18T09:44:12.285Z,22.40
2017-05-18T09:46:39.462Z,22.60
2017-05-18T09:49:06.616Z,22.70
2017-05-18T09:51:33.786Z,22.70
2017-05-18T09:54:01.700Z,22.70
2017-05-18T09:56:28.892Z,22.70
2017-05-18T09:58:56.055Z,22.80
2017-05-18T10:01:23.955Z,22.90
2017-05-18T10:03:51.125Z,23.00
2017-05-18T10:06:18.296Z,23.00
2017-05-18T10:08:45.443Z,23.10
2017-05-18T10:11:12.627Z,23.20
2017-05-18T10:13:40.582Z,23.40
2017-05-18T10:16:07.749Z,23.60
2017-05-18T10:18:35.653Z,23.80
2017-05-18T10:21:02.808Z,23.90
2017-05-18T10:23:29.981Z,23.80
2017-05-18T10:25:57.159Z,23.80
2017-05-18T10:28:25.045Z,23.80
2017-05-18T10:30:52.269Z,23.80
2017-05-18T10:33:19.410Z,23.90
2017-05-18T10:35:46.573Z,24.10
2017-05-18T10:38:13.713Z,24.30
2017-05-18T10:40:40.862Z,24.30
2017-05-18T10:43:08.037Z,24.20
2017-05-18T10:45:35.926Z,24.30
2017-05-18T10:48:03.100Z,24.40
2017-05-18T10:50:30.235Z,24.50
2017-05-18T10:52:57.379Z,24.60
2017-05-18T10:55:24.604Z,24.40
2017-05-18T10:57:52.545Z,24.40
2017-05-18T11:00:19.716Z,24.50
2017-05-18T11:02:47.653Z,24.60
2017-05-18T11:05:14.818Z,24.70
2017-05-18T11:07:41.982Z,24.90
2017-05-18T11:10:09.952Z,25.00
2017-05-18T11:12:37.841Z,25.00
2017-05-18T11:15:05.014Z,25.30
2017-05-18T11:17:32.226Z,25.70
2017-05-18T11:20:00.133Z,25.70
2017-05-18T11:22:27.313Z,25.80
2017-05-18T11:24:54.489Z,26.10
2017-05-18T11:27:22.381Z,26.10
2017-05-18T11:29:49.544Z,26.10
2017-05-18T11:32:16.757Z,26.20
2017-05-18T11:34:43.892Z,26.30
2017-05-18T11:37:11.090Z,26.50
2017-05-18T11:39:38.228Z,26.70
2017-05-18T11:42:06.146Z,27.00
2017-05-18T11:44:33.293Z,27.10
2017-05-18T11:47:00.439Z,27.10
2017-05-18T11:49:27.650Z,27.20
2017-05-18T11:51:54.889Z,27.60
2017-05-18T11:54:22.753Z,27.70
2017-05-18T11:56:50.677Z,28.00
2017-05-18T11:59:17.829Z,28.20
2017-05-18T12:01:44.980Z,28.40
2017-05-18T12:04:12.161Z,28.50
2017-05-18T12:06:39.309Z,28.40
2017-05-18T12:09:06.461Z,28.50
2017-05-18T12:11:34.392Z,29.10
2017-05-18T12:14:01.533Z,29.30
2017-05-18T12:16:28.669Z,29.70
2017-05-18T12:18:55.845Z,29.60
2017-05-18T12:21:22.981Z,28.90
2017-05-18T12:23:50.165Z,28.90
2017-05-18T12:26:17.350Z,29.40
2017-05-18T12:28:44.500Z,29.50
2017-05-18T12:31:11.721Z,30.50
2017-05-18T12:33:38.884Z,31.70
2017-05-18T12:36:06.785Z,33.00
2017-05-18T12:38:34.000Z,34.60
2017-05-18T12:41:01.936Z,35.70
2017-05-18T12:43:29.196Z,36.50
2017-05-18T12:45:56.417Z,36.70
2017-05-18T12:48:23.576Z,37.20
2017-05-18T12:50:50.779Z,38.70
2017-05-18T12:53:18.662Z,39.00
2017-05-18T12:55:45.798Z,38.00
2017-05-18T12:58:13.709Z,37.30
2017-05-18T13:00:40.843Z,37.70
2017-05-18T13:03:07.973Z,37.70
2017-05-18T13:05:42.781Z,39.20
2017-05-18T13:08:09.913Z,39.70
2017-05-18T13:10:37.077Z,40.50
2017-05-18T13:13:04.272Z,41.20
2017-05-18T13:15:31.418Z,41.30
2017-05-18T13:17:58.574Z,40.20
2017-05-18T13:20:25.785Z,41.10
2017-05-18T13:22:53.676Z,40.80
2017-05-18T13:25:20.065Z,40.80
2017-05-18T13:27:47.316Z,41.30
2017-05-18T13:30:14.448Z,41.60
2017-05-18T13:32:41.593Z,42.00
2017-05-18T13:35:08.787Z,42.50
2017-05-18T13:37:36.697Z,41.80
2017-05-18T13:40:03.832Z,41.80
2017-05-18T13:42:31.012Z,41.30
2017-05-18T13:44:58.145Z,42.30
2017-05-18T13:47:25.297Z,42.30
2017-05-18T13:49:52.476Z,42.20
2017-05-18T13:52:19.651Z,42.40
2017-05-18T13:54:46.866Z,41.50
2017-05-18T13:57:14.013Z,42.90
2017-05-18T13:59:41.167Z,43.30
2017-05-18T14:02:08.345Z,42.80
2017-05-18T14:04:35.491Z,42.00
2017-05-18T14:07:02.689Z,41.80
2017-05-18T14:09:29.877Z,42.00
2017-05-18T14:11:57.041Z,41.80
2017-05-18T14:14:24.225Z,41.80
2017-05-18T14:16:52.112Z,42.20
2017-05-18T14:19:19.270Z,43.30
2017-05-18T14:21:53.629Z,42.40
2017-05-18T14:24:20.794Z,43.20
2017-05-18T14:26:48.686Z,43.70
2017-05-18T14:29:15.877Z,43.00
2017-05-18T14:31:43.023Z,43.90
2017-05-18T14:34:10.153Z,43.50
2017-05-18T14:36:37.309Z,44.10
2017-05-18T14:39:04.499Z,43.70
2017-05-18T14:41:31.662Z,43.20
2017-05-18T14:43:58.800Z,43.40
2017-05-18T14:46:25.961Z,43.00
2017-05-18T14:48:53.111Z,41.00
2017-05-18T14:51:20.248Z,38.00
2017-05-18T14:53:47.474Z,36.70
2017-05-18T14:56:14.640Z,34.70
2017-05-18T14:58:41.836Z,33.70
2017-05-18T15:01:08.985Z,32.90
2017-05-18T15:03:36.150Z,31.80
2017-05-18T15:06:03.337Z,31.10
2017-05-18T15:08:30.505Z,31.10
2017-05-18T15:10:57.780Z,32.10
2017-05-18T15:13:25.668Z,34.60
2017-05-18T15:15:52.817Z,35.60
2017-05-18T15:18:20.005Z,35.00
2017-05-18T15:20:47.189Z,35.20
2017-05-18T15:23:15.066Z,36.00
2017-05-18T15:25:42.984Z,36.10
2017-05-18T15:28:10.199Z,37.00
2017-05-18T15:30:37.348Z,37.00
2017-05-18T15:33:04.873Z,36.30
2017-05-18T15:35:32.121Z,34.50
2017-05-18T15:37:59.261Z,33.20
2017-05-18T15:40:26.437Z,32.40
2017-05-18T15:42:54.718Z,31.70
2017-05-18T15:45:21.925Z,31.10
2017-05-18T15:47:49.086Z,30.30
2017-05-18T15:50:16.366Z,29.30
2017-05-18T15:52:44.254Z,28.40
2017-05-18T15:55:11.405Z,27.60
2017-05-18T15:57:38.584Z,27.40
2017-05-18T16:00:05.736Z,27.40
2017-05-18T16:02:32.877Z,27.20
2017-05-18T16:05:00.068Z,26.80
2017-05-18T16:07:27.198Z,26.60
2017-05-18T16:09:54.350Z,26.50
2017-05-18T16:12:21.581Z,26.30
2017-05-18T16:14:48.733Z,26.20
2017-05-18T16:17:15.889Z,26.00
2017-05-18T16:19:43.084Z,26.00
2017-05-18T16:22:11.092Z,25.70
2017-05-18T16:24:38.267Z,25.40
2017-05-18T16:27:05.472Z,25.30
2017-05-18T16:32:10.147Z,25.10
2017-05-18T16:34:37.328Z,25.00
2017-05-18T16:37:04.474Z,24.90
2017-05-18T16:39:31.622Z,24.90
2017-05-18T16:41:58.808Z,24.90
2017-05-18T16:44:26.708Z,24.70
2017-05-18T16:46:53.841Z,24.70
2017-05-18T16:49:21.037Z,24.70
2017-05-18T16:51:48.202Z,24.60
2017-05-18T16:54:22.385Z,24.60
2017-05-18T16:56:49.601Z,24.40
2017-05-18T16:59:16.744Z,24.40
2017-05-18T17:01:44.673Z,24.20
2017-05-18T17:04:11.829Z,24.30
2017-05-18T17:06:38.968Z,24.20
2017-05-18T17:09:06.161Z,24.20
2017-05-18T17:11:34.057Z,24.00
2017-05-18T17:14:01.237Z,23.80
2017-05-18T17:16:28.376Z,23.70
2017-05-18T17:18:55.538Z,23.50
2017-05-18T17:21:22.705Z,23.60
2017-05-18T17:23:49.882Z,23.50
2017-05-18T17:26:17.041Z,23.50
2017-05-18T17:28:44.245Z,23.50
2017-05-18T17:31:11.392Z,23.40
2017-05-18T17:33:38.528Z,23.40
2017-05-18T17:36:05.725Z,23.50
2017-05-18T17:41:01.025Z,23.30
2017-05-18T17:43:28.196Z,23.30
2017-05-18T17:45:56.106Z,23.20
2017-05-18T17:48:23.266Z,23.10
2017-05-18T17:50:50.441Z,23.00
2017-05-18T17:53:17.585Z,22.90
2017-05-18T17:55:44.737Z,22.90
2017-05-18T17:58:11.924Z,22.80
2017-05-18T18:00:39.820Z,22.80
2017-05-18T18:03:06.949Z,22.70
2017-05-18T18:05:34.125Z,22.70
2017-05-18T18:08:01.289Z,22.50
2017-05-18T18:10:28.550Z,22.40
2017-05-18T18:12:55.697Z,22.30
2017-05-18T18:15:22.837Z,22.10
2017-05-18T18:17:50.045Z,22.00
2017-05-18T18:20:17.937Z,21.80
2017-05-18T18:22:45.084Z,21.80
2017-05-18T18:25:12.316Z,21.60
2017-05-18T18:27:40.213Z,21.40
2017-05-18T18:30:07.365Z,21.30
2017-05-18T18:32:34.552Z,21.20
2017-05-18T18:35:01.713Z,21.20
2017-05-18T18:37:28.874Z,21.10
2017-05-18T18:39:56.790Z,21.00
2017-05-18T18:42:23.934Z,20.80
2017-05-18T18:44:51.217Z,20.70
2017-05-18T18:47:18.365Z,20.70
2017-05-18T18:49:45.524Z,20.60
2017-05-18T18:52:12.718Z,20.50
2017-05-18T18:54:39.871Z,20.50
2017-05-18T18:57:07.031Z,20.40
2017-05-18T18:59:34.220Z,20.30
2017-05-18T19:02:01.409Z,20.20
2017-05-18T19:04:29.302Z,20.10
2017-05-18T19:06:56.464Z,19.90
2017-05-18T19:09:23.665Z,19.80
2017-05-18T19:11:51.569Z,19.70
2017-05-18T19:14:18.728Z,19.70
2017-05-18T19:16:46.011Z,19.60
2017-05-18T19:19:13.157Z,19.60
2017-05-18T19:21:40.333Z,19.40
2017-05-18T19:24:08.245Z,19.40
2017-05-18T19:26:36.174Z,19.40
2017-05-18T19:29:04.073Z,19.30
2017-05-18T19:31:31.241Z,19.30
2017-05-18T19:33:58.414Z,19.30
2017-05-18T19:36:25.568Z,19.10
2017-05-18T19:38:52.760Z,19.10
2017-05-18T19:41:19.913Z,19.00
2017-05-18T19:43:47.057Z,18.90
2017-05-18T19:46:14.373Z,18.90
2017-05-18T19:48:41.529Z,18.80
2017-05-18T19:51:08.686Z,18.80
2017-05-18T19:53:36.008Z,18.70
2017-05-18T19:56:03.208Z,18.60
2017-05-18T19:58:31.109Z,18.60
2017-05-18T20:00:58.300Z,18.50
2017-05-18T20:03:25.455Z,18.50
2017-05-18T20:05:52.610Z,18.40
2017-05-18T20:08:20.537Z,18.40
2017-05-18T20:10:47.721Z,18.30
2017-05-18T20:13:14.902Z,18.10
2017-05-18T20:15:42.081Z,18.10
2017-05-18T20:18:09.238Z,18.10
2017-05-18T20:20:36.380Z,18.00
2017-05-18T20:23:03.665Z,18.00
2017-05-18T20:25:30.825Z,18.00
2017-05-18T20:27:57.986Z,18.00
2017-05-18T20:30:25.897Z,17.90
2017-05-18T20:32:53.061Z,17.80
2017-05-18T20:35:20.238Z,17.80
2017-05-18T20:37:47.385Z,17.70
2017-05-18T20:40:14.609Z,17.70
2017-05-18T20:42:41.773Z,17.70
2017-05-18T20:45:08.925Z,17.70
2017-05-18T20:47:36.153Z,17.60
2017-05-18T20:50:03.305Z,17.50
2017-05-18T20:52:30.432Z,17.50
2017-05-18T20:54:57.825Z,17.40
2017-05-18T20:57:25.001Z,17.30
2017-05-18T20:59:52.176Z,17.20
2017-05-18T21:02:20.094Z,17.20
2017-05-18T21:04:47.246Z,17.20
2017-05-18T21:07:14.406Z,17.20
2017-05-18T21:09:41.585Z,17.20
2017-05-18T21:12:09.496Z,17.10
2017-05-18T21:14:36.653Z,17.10
2017-05-18T21:17:03.832Z,17.10
2017-05-18T21:19:31.015Z,17.00
2017-05-18T21:21:58.156Z,17.10
2017-05-18T21:24:26.038Z,17.00
2017-05-18T21:26:53.296Z,17.00
2017-05-18T21:29:20.485Z,17.00
2017-05-18T21:31:47.627Z,16.90
2017-05-18T21:34:14.822Z,16.90
2017-05-18T21:36:42.713Z,16.90
2017-05-18T21:39:09.864Z,16.90
2017-05-18T21:41:37.070Z,16.90
2017-05-18T21:44:04.221Z,16.80
2017-05-18T21:46:31.374Z,16.80
2017-05-18T21:48:58.566Z,16.80
2017-05-18T21:51:25.721Z,16.80
2017-05-18T21:53:52.880Z,16.70
2017-05-18T21:56:20.092Z,16.70
2017-05-18T21:58:48.022Z,16.70
2017-05-18T22:01:15.162Z,16.60
2017-05-18T22:03:42.354Z,16.60
2017-05-18T22:06:09.508Z,16.60
2017-05-18T22:08:37.398Z,16.60
2017-05-18T22:11:04.589Z,16.50
2017-05-18T22:13:31.729Z,16.50
2017-05-18T22:15:58.876Z,16.50
2017-05-18T22:18:26.077Z,16.50
2017-05-18T22:20:53.237Z,16.50
2017-05-18T22:23:21.126Z,16.50
2017-05-18T22:25:48.309Z,16.40
2017-05-18T22:28:15.494Z,16.40
2017-05-18T22:30:43.384Z,16.40
2017-05-18T22:33:10.535Z,16.30
2017-05-18T22:35:37.731Z,16.30
2017-05-18T22:38:04.885Z,16.20
2017-05-18T22:40:32.072Z,16.20
2017-05-18T22:42:59.957Z,16.10
2017-05-18T22:45:27.101Z,16.20
2017-05-18T22:47:54.288Z,16.10
2017-05-18T22:50:21.436Z,16.10
2017-05-18T22:52:48.615Z,16.10
2017-05-18T22:55:15.744Z,16.10
2017-05-18T22:57:42.896Z,16.00
2017-05-18T23:00:10.186Z,16.00
2017-05-18T23:02:38.072Z,16.00
2017-05-18T23:05:05.216Z,16.00
2017-05-18T23:07:32.384Z,15.90
2017-05-18T23:09:59.581Z,15.80
2017-05-18T23:12:26.733Z,15.80
2017-05-18T23:14:53.872Z,15.70
2017-05-18T23:17:21.055Z,15.70
2017-05-18T23:19:48.945Z,15.70
2017-05-18T23:22:16.092Z,15.70
2017-05-18T23:24:43.266Z,15.70
2017-05-18T23:27:10.436Z,15.60
2017-05-18T23:29:37.584Z,15.60
2017-05-18T23:32:04.779Z,15.50
2017-05-18T23:34:32.661Z,15.50
2017-05-18T23:36:59.813Z,15.40
2017-05-18T23:39:27.001Z,15.30
2017-05-18T23:41:54.157Z,15.20
2017-05-18T23:44:21.338Z,15.20
2017-05-18T23:46:49.258Z,15.10
2017-05-18T23:49:16.421Z,15.20
2017-05-18T23:51:43.566Z,15.10
2017-05-18T23:54:10.858Z,15.10
2017-05-18T23:56:38.729Z,15.00
2017-05-18T23:59:05.883Z,15.00
